KLFK/LFK METAR and TAF weather

Enter ICAO airport designator
Station Type Date Time Source
KLFK METAR 2021/04/13 08:25 UTC NOAA

KLFK 130825Z AUTO 00000KT 10SM BKN017 BKN024 OVC038 19/17 A2990 RMK AO2 T01890167


Station Type Date Time Source
KLFK Decoded METAR 2021/04/13 08:25 UTC NOAA

LUFKIN ANGELINA COUNTY AIRPORT , TX, United States (KLFK) 31-14N 94-45W 88M
Apr 13, 2021 - 04:25 AM EDT / 2021.04.13 0825 UTC
Wind: Calm:0
Visibility: 10 mile(s):0
Sky conditions: overcast
Temperature: 66.0 F (18.9 C)
Dew Point: 62.1 F (16.7 C)
Relative Humidity: 87%
Pressure (altimeter): 29.9 in. Hg (1012 hPa)
ob: KLFK 130825Z AUTO 00000KT 10SM BKN017 BKN024 OVC038 19/17 A2990 RMK AO2 T01890167
cycle: 8

Station Type Date Time Source
KLFK TAF 2021/04/13 06:36 UTC NOAA

TAF KLFK 130534Z 1306/1406 14004KT P6SM BKN250
FM130800 VRB03KT P6SM BKN040
TEMPO 1308/1310 BKN019
FM131000 VRB03KT P6SM BKN018
FM131500 VRB04KT P6SM BKN015
FM131700 VRB05KT P6SM BKN025
FM131900 VRB06KT P6SM BKN035
FM140000 08004KT P6SM BKN030
FM140300 08004KT P6SM BKN015

Example: see airport list